Lord Nelson — GHJV — position and weather

sailwx.info

Track history (hours):
 
Tides and Currents Weather Stations Pressure Air Temp Water Temp Dewpoint Dewpoint Depression Visibility Wind Speed Wind Dir Waves Ship Positions

Lord Nelson (United Kingdom)

Ship's website: http://www.jst.org.uk/

Last reported at 2016-May-26 11:32 UTC. Time now 2016-May-26 12:29 UTC.
Position N 51°30' W 000°04'.

Length 54.7 m; beam 9 m; draft 4.1 m.

Type: Sailing vessel. MMSI: 232003690.

Date/timePositionNaut miles runAvg speedWind from/ knotsBaromVisibWave heightAir tempDewpointWater temp
2016-May-26 11:32N 51°30' W 000°04'0 0.0
2016-May-26 10:32N 51°30' W 000°04'0 0.0
2016-May-26 01:29N 51°30' W 000°04'0 0.0
2016-May-25 17:14N 51°30' W 000°04'0 0.0
2016-May-25 16:32N 51°30' W 000°04'0 0.0
2016-May-25 14:14N 51°30' W 000°04'0 0.0
2016-May-25 13:32N 51°30' W 000°04'0 0.0
2016-May-25 12:14N 51°30' W 000°04'0 0.0
2016-May-25 07:32N 51°30' W 000°04'0 0.0
2016-May-25 06:32N 51°30' W 000°04'0 0.0
2016-May-25 05:32N 51°30' W 000°04'0 0.0
2016-May-25 04:32N 51°30' W 000°04'0 0.0
2016-May-25 03:31N 51°30' W 000°04'0 0.0
2016-May-25 02:07N 51°30' W 000°04'0 0.0
2016-May-25 00:31N 51°30' W 000°04'0 0.0
2016-May-24 23:31N 51°30' W 000°04'0 0.0
2016-May-24 22:31N 51°30' W 000°04'0 0.0
2016-May-24 21:31N 51°30' W 000°04'5 0.2
2016-May-23 13:26N 51°30' E 000°04'6 7.1
2016-May-23 12:34N 51°29' E 000°14'7 7.1
2016-May-23 11:34N 51°27' E 000°25'6 6.4
2016-May-23 10:33N 51°30' E 000°34'5 5.0
2016-May-23 09:33N 51°30' E 000°42'0 0.0
2016-May-23 08:33N 51°30' E 000°42'0 0.0
2016-May-23 07:33N 51°30' E 000°42'0 0.0
2016-May-23 06:33N 51°30' E 000°42'0 0.0
2016-May-23 05:33N 51°30' E 000°42'0 0.0
2016-May-23 04:33N 51°30' E 000°42'0 0.0
2016-May-23 03:33N 51°30' E 000°42'0 0.0
2016-May-23 02:33N 51°30' E 000°42'0 0.0
2016-May-23 01:33N 51°30' E 000°42'0 0.0
2016-May-23 00:32N 51°30' E 000°42'0 0.0
2016-May-22 23:29N 51°30' E 000°42'0 0.0
2016-May-22 21:26N 51°30' E 000°42'0 0.1
2016-May-22 20:32N 51°30' E 000°42'0 0.0
2016-May-22 19:32N 51°30' E 000°42'0 0.0
2016-May-22 18:32N 51°30' E 000°42'0 0.0
2016-May-22 17:32N 51°30' E 000°42'0 0.0
2016-May-22 16:32N 51°30' E 000°42'0 0.0
2016-May-22 15:32N 51°30' E 000°42'0 0.0
2016-May-22 14:30N 51°30' E 000°42'5 5.1
2016-May-22 13:32N 51°30' E 000°50'7 7.3
2016-May-22 12:32N 51°30' E 001°02'8 8.6
2016-May-22 11:33N 51°29' E 001°15'9 8.6
2016-May-22 10:33N 51°26' E 001°28'7 6.9
2016-May-22 09:33N 51°20' E 001°32'5 5.1
2016-May-22 08:33N 51°15' E 001°27'5 5.3
2016-May-22 07:33N 51°10' E 001°26'5 4.6
2016-May-22 06:33N 51°06' E 001°23'5 4.4
2016-May-22 05:32N 51°03' E 001°18'43 7.1
2016-May-21 23:32N 50°40' E 000°22'8 7.9
2016-May-21 22:33N 50°38' E 000°09'8 8.6
2016-May-21 21:33N 50°37' W 000°04'9 9.0
2016-May-21 20:33N 50°36' W 000°18'10 9.7
2016-May-21 19:33N 50°36' W 000°33'10 9.5
2016-May-21 18:34N 50°39' W 000°48'8 8.1
2016-May-21 17:32N 50°43' W 000°60'7 7.2
2016-May-21 16:33N 50°46' W 001°10'6 5.7
2016-May-21 15:33N 50°48' W 001°18'7 7.4
2016-May-21 14:33N 50°54' W 001°25'0 0.0
2016-May-20 10:30N 50°54' W 001°26'5 5.4
2016-May-20 09:33N 50°51' W 001°20'5 5.4
2016-May-20 08:34N 50°45' W 001°22'1 0.8
2016-May-20 07:29N 50°45' W 001°22'0 0.0
2016-May-20 06:32N 50°45' W 001°22'0 0.0
2016-May-20 03:16N 50°45' W 001°22'0 0.1
2016-May-20 02:32N 50°45' W 001°22'0 0.0
2016-May-20 01:28N 50°45' W 001°22'0 0.0
2016-May-20 00:22N 50°45' W 001°23'0 0.1
2016-May-19 23:22N 50°45' W 001°22'0 0.0
2016-May-19 22:04N 50°45' W 001°23'0 0.1
2016-May-19 21:22N 50°45' W 001°22'0 0.0
2016-May-19 19:10N 50°45' W 001°22'2 0.7
2016-May-19 16:33N 50°44' W 001°25'7 7.3
2016-May-19 15:33N 50°40' W 001°35'5 5.3
2016-May-19 14:34N 50°39' W 001°43'5 4.5
2016-May-19 13:34N 50°38' W 001°50'4 3.6
2016-May-19 12:33N 50°37' W 001°56'1 0.6
2016-May-19 11:31N 50°37' W 001°57'0 0.0
2016-May-19 10:31N 50°37' W 001°57'0 0.0
2016-May-19 09:31N 50°37' W 001°57'0 0.0
2016-May-19 08:31N 50°37' W 001°57'0 0.0
2016-May-19 07:31N 50°37' W 001°57'0 0.0
2016-May-19 06:31N 50°37' W 001°57'0 0.0
2016-May-19 05:31N 50°37' W 001°57'0 0.0
2016-May-19 04:31N 50°37' W 001°57'0 0.0
2016-May-19 03:31N 50°37' W 001°57'0 0.0
2016-May-19 02:31N 50°37' W 001°57'0 0.0
2016-May-19 01:31N 50°37' W 001°57'0 0.0
2016-May-19 00:31N 50°37' W 001°57'0 0.0
2016-May-18 23:31N 50°37' W 001°57'0 0.0
2016-May-18 22:31N 50°37' W 001°57'0 0.0
2016-May-18 21:31N 50°37' W 001°57'0 0.0
2016-May-18 20:31N 50°37' W 001°57'2 2.2
2016-May-18 19:34N 50°37' W 001°53'4 4.2
2016-May-18 18:34N 50°33' W 001°52'50 2.1
2016-May-17 18:26N 49°44' W 002°12'25 1.0
2016-May-16 17:32N 49°20' W 002°20'  
Track history (hours):
 
Tides and Currents Weather Stations Pressure Air Temp Water Temp Dewpoint Dewpoint Depression Visibility Wind Speed Wind Dir Waves Ship Positions

Lord Nelson (United Kingdom)

Ship's website: http://www.jst.org.uk/

Last reported at 2016-May-26 11:32 UTC. Time now 2016-May-26 12:29 UTC.
Position N 51°30' W 000°04'.

Length 54.7 m; beam 9 m; draft 4.1 m.

Type: Sailing vessel. MMSI: 232003690.

Date/timePositionNaut miles runAvg speedWind from/ knotsBaromVisibWave heightAir tempDewpointWater temp
2016-May-26 11:32N 51°30' W 000°04'0 0.0
2016-May-26 10:32N 51°30' W 000°04'0 0.0
2016-May-26 01:29N 51°30' W 000°04'0 0.0
2016-May-25 17:14N 51°30' W 000°04'0 0.0
2016-May-25 16:32N 51°30' W 000°04'0 0.0
2016-May-25 14:14N 51°30' W 000°04'0 0.0
2016-May-25 13:32N 51°30' W 000°04'0 0.0
2016-May-25 12:14N 51°30' W 000°04'0 0.0
2016-May-25 07:32N 51°30' W 000°04'0 0.0
2016-May-25 06:32N 51°30' W 000°04'0 0.0
2016-May-25 05:32N 51°30' W 000°04'0 0.0
2016-May-25 04:32N 51°30' W 000°04'0 0.0
2016-May-25 03:31N 51°30' W 000°04'0 0.0
2016-May-25 02:07N 51°30' W 000°04'0 0.0
2016-May-25 00:31N 51°30' W 000°04'0 0.0
2016-May-24 23:31N 51°30' W 000°04'0 0.0
2016-May-24 22:31N 51°30' W 000°04'0 0.0
2016-May-24 21:31N 51°30' W 000°04'5 0.2
2016-May-23 13:26N 51°30' E 000°04'6 7.1
2016-May-23 12:34N 51°29' E 000°14'7 7.1
2016-May-23 11:34N 51°27' E 000°25'6 6.4
2016-May-23 10:33N 51°30' E 000°34'5 5.0
2016-May-23 09:33N 51°30' E 000°42'0 0.0
2016-May-23 08:33N 51°30' E 000°42'0 0.0
2016-May-23 07:33N 51°30' E 000°42'0 0.0
2016-May-23 06:33N 51°30' E 000°42'0 0.0
2016-May-23 05:33N 51°30' E 000°42'0 0.0
2016-May-23 04:33N 51°30' E 000°42'0 0.0
2016-May-23 03:33N 51°30' E 000°42'0 0.0
2016-May-23 02:33N 51°30' E 000°42'0 0.0
2016-May-23 01:33N 51°30' E 000°42'0 0.0
2016-May-23 00:32N 51°30' E 000°42'0 0.0
2016-May-22 23:29N 51°30' E 000°42'0 0.0
2016-May-22 21:26N 51°30' E 000°42'0 0.1
2016-May-22 20:32N 51°30' E 000°42'0 0.0
2016-May-22 19:32N 51°30' E 000°42'0 0.0
2016-May-22 18:32N 51°30' E 000°42'0 0.0
2016-May-22 17:32N 51°30' E 000°42'0 0.0
2016-May-22 16:32N 51°30' E 000°42'0 0.0
2016-May-22 15:32N 51°30' E 000°42'0 0.0
2016-May-22 14:30N 51°30' E 000°42'5 5.1
2016-May-22 13:32N 51°30' E 000°50'7 7.3
2016-May-22 12:32N 51°30' E 001°02'8 8.6
2016-May-22 11:33N 51°29' E 001°15'9 8.6
2016-May-22 10:33N 51°26' E 001°28'7 6.9
2016-May-22 09:33N 51°20' E 001°32'5 5.1
2016-May-22 08:33N 51°15' E 001°27'5 5.3
2016-May-22 07:33N 51°10' E 001°26'5 4.6
2016-May-22 06:33N 51°06' E 001°23'5 4.4
2016-May-22 05:32N 51°03' E 001°18'43 7.1
2016-May-21 23:32N 50°40' E 000°22'8 7.9
2016-May-21 22:33N 50°38' E 000°09'8 8.6
2016-May-21 21:33N 50°37' W 000°04'9 9.0
2016-May-21 20:33N 50°36' W 000°18'10 9.7
2016-May-21 19:33N 50°36' W 000°33'10 9.5
2016-May-21 18:34N 50°39' W 000°48'8 8.1
2016-May-21 17:32N 50°43' W 000°60'7 7.2
2016-May-21 16:33N 50°46' W 001°10'6 5.7
2016-May-21 15:33N 50°48' W 001°18'7 7.4
2016-May-21 14:33N 50°54' W 001°25'0 0.0
2016-May-20 10:30N 50°54' W 001°26'5 5.4
2016-May-20 09:33N 50°51' W 001°20'5 5.4
2016-May-20 08:34N 50°45' W 001°22'1 0.8
2016-May-20 07:29N 50°45' W 001°22'0 0.0
2016-May-20 06:32N 50°45' W 001°22'0 0.0
2016-May-20 03:16N 50°45' W 001°22'0 0.1
2016-May-20 02:32N 50°45' W 001°22'0 0.0
2016-May-20 01:28N 50°45' W 001°22'0 0.0
2016-May-20 00:22N 50°45' W 001°23'0 0.1
2016-May-19 23:22N 50°45' W 001°22'0 0.0
2016-May-19 22:04N 50°45' W 001°23'0 0.1
2016-May-19 21:22N 50°45' W 001°22'0 0.0
2016-May-19 19:10N 50°45' W 001°22'2 0.7
2016-May-19 16:33N 50°44' W 001°25'7 7.3
2016-May-19 15:33N 50°40' W 001°35'5 5.3
2016-May-19 14:34N 50°39' W 001°43'5 4.5
2016-May-19 13:34N 50°38' W 001°50'4 3.6
2016-May-19 12:33N 50°37' W 001°56'1 0.6
2016-May-19 11:31N 50°37' W 001°57'0 0.0
2016-May-19 10:31N 50°37' W 001°57'0 0.0
2016-May-19 09:31N 50°37' W 001°57'0 0.0
2016-May-19 08:31N 50°37' W 001°57'0 0.0
2016-May-19 07:31N 50°37' W 001°57'0 0.0
2016-May-19 06:31N 50°37' W 001°57'0 0.0
2016-May-19 05:31N 50°37' W 001°57'0 0.0
2016-May-19 04:31N 50°37' W 001°57'0 0.0
2016-May-19 03:31N 50°37' W 001°57'0 0.0
2016-May-19 02:31N 50°37' W 001°57'0 0.0
2016-May-19 01:31N 50°37' W 001°57'0 0.0
2016-May-19 00:31N 50°37' W 001°57'0 0.0
2016-May-18 23:31N 50°37' W 001°57'0 0.0
2016-May-18 22:31N 50°37' W 001°57'0 0.0
2016-May-18 21:31N 50°37' W 001°57'0 0.0
2016-May-18 20:31N 50°37' W 001°57'2 2.2
2016-May-18 19:34N 50°37' W 001°53'4 4.2
2016-May-18 18:34N 50°33' W 001°52'50 2.1
2016-May-17 18:26N 49°44' W 002°12'25 1.0
2016-May-16 17:32N 49°20' W 002°20'  

Dump ship's entire track history